createdAt,value
2023-03-29T15:33:20.001Z,59.09
2023-03-29T15:35:51.150Z,60.64
2023-03-29T15:38:23.404Z,60.81
2023-03-29T15:40:54.635Z,58.88
2023-03-29T15:43:22.725Z,59.07
2023-03-29T15:45:50.241Z,61.26
2023-03-29T15:48:21.476Z,60.43
2023-03-29T15:50:49.070Z,59.89
2023-03-29T15:53:20.790Z,60.72
2023-03-29T15:55:53.993Z,61.53
2023-03-29T15:58:30.512Z,61.06
2023-03-29T16:01:23.302Z,61.33
2023-03-29T16:03:51.847Z,61.71
2023-03-29T16:06:18.434Z,59.45
2023-03-29T16:08:46.311Z,62.11
2023-03-29T16:11:14.049Z,61.14
2023-03-29T16:13:40.718Z,62.11
2023-03-29T16:16:10.559Z,62.11
2023-03-29T16:18:37.583Z,62.34
2023-03-29T16:21:04.808Z,61.39
2023-03-29T16:23:31.315Z,62.37
2023-03-29T16:25:59.200Z,63.11
2023-03-29T16:28:25.715Z,63.12
2023-03-29T16:30:52.571Z,62.50
2023-03-29T16:33:21.248Z,64.01
2023-03-29T16:35:48.966Z,63.54
2023-03-29T16:38:16.609Z,64.09
2023-03-29T16:40:43.619Z,64.96
2023-03-29T16:43:15.993Z,65.37
2023-03-29T16:45:42.601Z,66.18
2023-03-29T16:48:18.023Z,67.15
2023-03-29T16:50:50.906Z,66.42
2023-03-29T16:53:18.535Z,67.10
2023-03-29T16:55:48.703Z,68.03
2023-03-29T16:58:15.453Z,68.12
2023-03-29T17:00:46.391Z,67.89
2023-03-29T17:03:17.637Z,68.51
2023-03-29T17:05:48.533Z,68.40
2023-03-29T17:08:15.372Z,69.19
2023-03-29T17:10:42.496Z,69.30
2023-03-29T17:13:12.402Z,69.53
2023-03-29T17:15:40.162Z,70.14
2023-03-29T17:18:07.454Z,71.01
2023-03-29T17:20:36.826Z,70.30
2023-03-29T17:23:10.621Z,72.24
2023-03-29T17:25:37.374Z,71.96
2023-03-29T17:28:04.075Z,71.99
2023-03-29T17:30:33.175Z,72.69
2023-03-29T17:33:00.100Z,73.19
2023-03-29T17:35:28.620Z,73.67
2023-03-29T17:37:57.652Z,73.90
2023-03-29T17:40:24.739Z,73.11
2023-03-29T17:42:55.274Z,74.42
2023-03-29T17:45:22.357Z,73.46
2023-03-29T17:47:48.979Z,75.08
2023-03-29T17:50:16.911Z,75.18
2023-03-29T17:52:43.598Z,76.86
2023-03-29T17:55:13.403Z,75.68
2023-03-29T17:57:43.404Z,76.19
2023-03-29T18:00:13.603Z,76.56
2023-03-29T18:02:42.704Z,76.61
2023-03-29T18:05:10.704Z,77.17
2023-03-29T18:07:39.767Z,77.89
2023-03-29T18:10:09.498Z,78.22
2023-03-29T18:12:36.569Z,77.79
2023-03-29T18:15:04.115Z,78.37
2023-03-29T18:17:34.548Z,79.07
2023-03-29T18:20:01.478Z,78.87
2023-03-29T18:22:28.910Z,78.30
2023-03-29T18:24:56.312Z,78.51
2023-03-29T18:27:22.960Z,78.13
2023-03-29T18:29:49.565Z,78.23
2023-03-29T18:32:17.013Z,77.82
2023-03-29T18:34:43.656Z,78.47
2023-03-29T18:37:14.872Z,78.88
2023-03-29T18:39:42.845Z,79.18
2023-03-29T18:42:11.636Z,79.99
2023-03-29T18:44:40.597Z,80.10
2023-03-29T18:47:11.478Z,79.70
2023-03-29T18:49:38.033Z,79.47
2023-03-29T18:52:06.460Z,80.06
2023-03-29T18:54:33.669Z,80.10
2023-03-29T18:57:02.050Z,80.73
2023-03-29T18:59:29.153Z,80.44
2023-03-29T19:01:56.011Z,80.01
2023-03-29T19:04:26.834Z,79.83
2023-03-29T19:06:55.433Z,78.35
2023-03-29T19:09:23.250Z,79.94
2023-03-29T19:11:49.714Z,79.30
2023-03-29T19:14:23.348Z,79.14
2023-03-29T19:16:51.582Z,79.08
2023-03-29T19:19:21.317Z,79.03
2023-03-29T19:21:51.383Z,79.01
2023-03-29T19:24:18.359Z,78.64
2023-03-29T19:26:47.798Z,78.81
2023-03-29T19:29:15.678Z,78.84
2023-03-29T19:31:43.118Z,78.18
2023-03-29T19:34:10.986Z,78.53
2023-03-29T19:36:39.609Z,78.61
2023-03-29T19:39:07.029Z,78.53
2023-03-29T19:41:35.265Z,77.97
2023-03-29T19:44:02.122Z,77.69
2023-03-29T19:46:28.931Z,78.02
2023-03-29T19:48:56.163Z,77.21
2023-03-29T19:51:23.524Z,77.81
2023-03-29T19:53:53.997Z,78.58
2023-03-29T19:56:23.357Z,78.04
2023-03-29T19:58:52.815Z,78.40
2023-03-29T20:01:21.019Z,78.90
2023-03-29T20:03:49.127Z,78.69
2023-03-29T20:06:16.797Z,77.94
2023-03-29T20:08:44.114Z,78.97
2023-03-29T20:11:16.422Z,78.37
2023-03-29T20:13:44.752Z,79.02
2023-03-29T20:16:15.008Z,77.77
2023-03-29T20:18:44.615Z,77.67
2023-03-29T20:21:17.019Z,77.69
2023-03-29T20:23:44.030Z,78.10
2023-03-29T20:26:10.584Z,78.01
2023-03-29T20:28:37.745Z,78.49
2023-03-29T20:31:06.866Z,79.08
2023-03-29T20:33:33.733Z,78.04
2023-03-29T20:36:00.452Z,77.94
2023-03-29T20:38:28.489Z,78.15
2023-03-29T20:40:56.354Z,78.04
2023-03-29T20:43:29.430Z,77.60
2023-03-29T20:45:56.175Z,78.15
2023-03-29T20:48:24.293Z,78.04
2023-03-29T20:50:51.450Z,78.36
2023-03-29T20:53:20.295Z,78.69
2023-03-29T20:55:47.688Z,77.83
2023-03-29T20:58:15.606Z,77.82
2023-03-29T21:00:43.571Z,76.92
2023-03-29T21:03:11.039Z,75.98
2023-03-29T21:05:39.002Z,75.63
2023-03-29T21:08:06.545Z,76.29
2023-03-29T21:10:33.499Z,76.88
2023-03-29T21:13:00.547Z,75.81
2023-03-29T21:15:30.553Z,75.97
2023-03-29T21:17:57.642Z,75.62
2023-03-29T21:20:24.194Z,75.94
2023-03-29T21:22:51.545Z,75.66
2023-03-29T21:25:18.820Z,75.38
2023-03-29T21:27:45.831Z,75.27
2023-03-29T21:30:12.549Z,75.61
2023-03-29T21:32:40.408Z,75.35
2023-03-29T21:35:07.911Z,74.98
2023-03-29T21:37:34.737Z,75.45
2023-03-29T21:40:05.463Z,74.70
2023-03-29T21:42:33.480Z,78.00
2023-03-29T21:45:02.569Z,79.19
2023-03-29T21:47:29.516Z,77.39
2023-03-29T21:49:56.379Z,75.32
2023-03-29T21:52:24.038Z,76.44
2023-03-29T21:54:50.510Z,75.33
2023-03-29T21:57:17.323Z,76.69
2023-03-29T21:59:43.975Z,76.71
2023-03-29T22:02:10.773Z,78.17
2023-03-29T22:04:37.793Z,76.52
2023-03-29T22:07:05.527Z,77.16
2023-03-29T22:09:34.889Z,76.37
2023-03-29T22:12:02.887Z,76.89
2023-03-29T22:14:34.560Z,76.34
2023-03-29T22:17:06.716Z,75.28
2023-03-29T22:19:39.119Z,77.46
2023-03-29T22:22:07.266Z,78.39
2023-03-29T22:24:33.808Z,79.92
2023-03-29T22:27:00.670Z,79.96
2023-03-29T22:29:27.544Z,81.55
2023-03-29T22:31:55.020Z,81.98
2023-03-29T22:34:22.360Z,80.92
2023-03-29T22:36:49.666Z,80.93
2023-03-29T22:39:16.886Z,81.70
2023-03-29T22:41:43.563Z,82.26
2023-03-29T22:44:13.020Z,82.32
2023-03-29T22:46:39.479Z,82.23
2023-03-29T22:49:06.553Z,81.56
2023-03-29T22:51:33.045Z,82.48
2023-03-29T22:53:59.771Z,81.47
2023-03-29T22:56:27.068Z,82.28
2023-03-29T22:58:53.722Z,81.70
2023-03-29T23:01:20.208Z,81.96
2023-03-29T23:03:47.260Z,82.81
2023-03-29T23:06:13.693Z,83.47
2023-03-29T23:08:41.206Z,82.88
2023-03-29T23:11:08.222Z,83.00
2023-03-29T23:13:36.024Z,83.18
2023-03-29T23:16:03.901Z,83.17
2023-03-29T23:18:32.045Z,82.87
2023-03-29T23:20:58.977Z,82.25
2023-03-29T23:23:27.237Z,82.49
2023-03-29T23:25:55.969Z,80.10
2023-03-29T23:28:26.908Z,77.85
2023-03-29T23:31:02.745Z,79.56
2023-03-29T23:33:33.324Z,80.29
2023-03-29T23:36:01.381Z,80.25
2023-03-29T23:38:27.865Z,79.67
2023-03-29T23:40:58.676Z,77.93
2023-03-29T23:43:33.161Z,72.92
2023-03-29T23:46:05.036Z,71.80
2023-03-29T23:48:32.517Z,71.70
2023-03-29T23:50:59.155Z,72.84
2023-03-29T23:53:28.381Z,69.90
2023-03-29T23:55:58.125Z,70.88
2023-03-29T23:58:25.341Z,70.91
